createdAt,value
2022-12-25T00:00:30.338Z,100777.31
2022-12-25T00:03:40.125Z,100789.00
2022-12-25T00:06:48.011Z,100798.28
2022-12-25T00:09:56.351Z,100799.53
2022-12-25T00:13:02.848Z,100804.47
2022-12-25T00:16:09.820Z,100806.31
2022-12-25T00:19:15.739Z,100796.56
2022-12-25T00:22:25.191Z,100795.72
2022-12-25T00:25:30.240Z,100813.19
2022-12-25T00:28:37.467Z,100822.50
2022-12-25T00:31:43.780Z,100831.84
2022-12-25T00:34:50.787Z,100831.72
2022-12-25T00:37:56.705Z,100831.09
2022-12-25T00:41:07.409Z,100841.44
2022-12-25T00:44:13.958Z,100831.50
2022-12-25T00:47:18.016Z,100841.03
2022-12-25T00:50:21.052Z,100834.34
2022-12-25T00:53:25.049Z,100847.81
2022-12-25T00:56:30.701Z,100848.38
2022-12-25T00:59:36.086Z,100852.62
2022-12-25T01:02:39.833Z,100845.78
2022-12-25T01:05:46.991Z,100846.38
2022-12-25T01:09:11.198Z,100854.78
2022-12-25T01:12:17.579Z,100860.44
2022-12-25T01:15:24.842Z,100857.87
2022-12-25T01:18:31.325Z,100860.34
2022-12-25T01:21:38.610Z,100863.94
2022-12-25T01:24:45.452Z,100861.94
2022-12-25T01:27:52.922Z,100875.47
2022-12-25T01:31:00.884Z,100876.69
2022-12-25T01:34:07.932Z,100879.97
2022-12-25T01:37:15.379Z,100877.91
2022-12-25T01:40:23.053Z,100879.03
2022-12-25T01:43:34.341Z,100884.19
2022-12-25T01:46:43.184Z,100894.47
2022-12-25T01:49:51.898Z,100902.97
2022-12-25T01:52:57.978Z,100881.56
2022-12-25T01:56:08.317Z,100872.09
2022-12-25T01:59:15.536Z,100874.44
2022-12-25T02:02:23.978Z,100880.16
2022-12-25T02:05:35.187Z,100887.50
2022-12-25T02:08:42.034Z,100884.13
2022-12-25T02:11:58.416Z,100881.03
2022-12-25T02:15:10.260Z,100877.22
2022-12-25T02:18:20.591Z,100876.63
2022-12-25T02:21:45.482Z,100884.28
2022-12-25T02:25:05.409Z,100877.25
2022-12-25T02:28:17.400Z,100878.44
2022-12-25T02:31:32.076Z,100872.38
2022-12-25T02:34:58.418Z,100884.81
2022-12-25T02:38:10.714Z,100891.00
2022-12-25T02:41:17.273Z,100903.31
2022-12-25T02:44:45.254Z,100897.84
2022-12-25T02:48:10.328Z,100903.78
2022-12-25T02:51:35.220Z,100898.44
2022-12-25T02:55:05.682Z,100904.06
2022-12-25T02:58:34.113Z,100897.97
2022-12-25T03:01:57.299Z,100902.22
2022-12-25T03:05:23.516Z,100910.00
2022-12-25T03:08:32.240Z,100914.78
2022-12-25T03:11:41.207Z,100920.19
2022-12-25T03:15:08.408Z,100929.25
2022-12-25T03:18:22.865Z,100932.94
2022-12-25T03:21:49.692Z,100941.94
2022-12-25T03:25:15.457Z,100940.81
2022-12-25T03:28:20.998Z,100933.53
2022-12-25T03:31:35.770Z,100931.97
2022-12-25T03:35:07.722Z,100935.06
2022-12-25T03:38:48.508Z,100947.25
2022-12-25T03:42:15.669Z,100955.28
2022-12-25T03:45:55.332Z,100949.19
2022-12-25T03:49:27.020Z,100951.94
2022-12-25T03:52:55.821Z,100952.53
2022-12-25T03:56:20.492Z,100944.78
2022-12-25T03:59:44.614Z,100955.63
2022-12-25T04:03:09.863Z,100964.59
2022-12-25T04:06:34.945Z,100972.69
2022-12-25T04:09:59.465Z,100966.88
2022-12-25T04:13:26.281Z,100966.88
2022-12-25T04:16:51.738Z,100952.66
2022-12-25T04:20:16.752Z,100947.84
2022-12-25T04:23:40.602Z,100957.78
2022-12-25T04:27:09.343Z,100954.16
2022-12-25T04:30:33.655Z,100960.41
2022-12-25T04:34:00.380Z,100965.66
2022-12-25T04:37:10.604Z,100962.19
2022-12-25T04:40:18.317Z,100964.91
2022-12-25T04:43:28.056Z,100948.41
2022-12-25T04:46:35.478Z,100946.06
2022-12-25T04:49:41.917Z,100943.78
2022-12-25T04:52:50.875Z,100951.69
2022-12-25T04:56:08.699Z,100961.84
2022-12-25T04:59:15.848Z,100962.19
2022-12-25T05:02:24.388Z,100972.91
2022-12-25T05:05:32.598Z,100966.81
2022-12-25T05:08:41.965Z,100972.44
2022-12-25T05:11:52.111Z,100963.91
2022-12-25T05:15:01.355Z,100971.88
2022-12-25T05:18:09.209Z,100980.78
2022-12-25T05:21:14.223Z,100985.16
2022-12-25T05:24:27.694Z,100989.72
2022-12-25T05:27:36.711Z,100978.19
2022-12-25T05:30:45.916Z,100978.75
2022-12-25T05:33:55.632Z,100976.22
2022-12-25T05:37:03.277Z,100977.72
2022-12-25T05:40:11.175Z,100983.28
2022-12-25T05:43:19.491Z,100996.19
2022-12-25T05:46:26.127Z,100989.78
2022-12-25T05:49:35.556Z,100997.03
2022-12-25T05:52:41.872Z,100995.66
2022-12-25T05:55:47.904Z,100997.66
2022-12-25T05:58:54.300Z,101008.88
2022-12-25T06:02:01.935Z,101013.50
2022-12-25T06:05:11.218Z,101004.19
2022-12-25T06:08:18.380Z,101007.94
2022-12-25T06:11:25.983Z,101014.22
2022-12-25T06:14:32.439Z,101012.84
2022-12-25T06:17:40.186Z,101007.72
2022-12-25T06:20:46.186Z,101006.97
2022-12-25T06:23:54.141Z,101007.91
2022-12-25T06:27:01.452Z,101001.22
2022-12-25T06:30:10.219Z,101004.22
2022-12-25T06:33:17.056Z,101017.03
2022-12-25T06:36:29.706Z,101021.72
2022-12-25T06:39:35.570Z,101032.66
2022-12-25T06:42:43.105Z,101022.16
2022-12-25T06:45:49.500Z,101023.53
2022-12-25T06:48:55.510Z,101021.09
2022-12-25T06:52:03.238Z,101027.19
2022-12-25T06:55:11.509Z,101032.34
2022-12-25T06:58:19.456Z,101043.13
2022-12-25T07:01:27.915Z,101045.84
2022-12-25T07:04:41.133Z,101048.69
2022-12-25T07:07:49.791Z,101052.69
2022-12-25T07:10:57.631Z,101049.44
2022-12-25T07:14:05.498Z,101056.16
2022-12-25T07:17:11.038Z,101068.72
2022-12-25T07:20:16.484Z,101070.41
2022-12-25T07:23:23.671Z,101076.50
2022-12-25T07:26:32.317Z,101091.59
2022-12-25T07:29:41.010Z,101086.19
2022-12-25T07:32:50.266Z,101096.06
2022-12-25T07:35:58.780Z,101102.88
2022-12-25T07:39:06.042Z,101104.75
2022-12-25T07:42:13.856Z,101105.50
2022-12-25T07:45:21.056Z,101117.75
2022-12-25T07:48:27.701Z,101111.19
2022-12-25T07:51:34.672Z,101115.56
2022-12-25T07:54:42.020Z,101123.75
2022-12-25T07:57:50.177Z,101128.25
2022-12-25T08:00:56.569Z,101128.44
2022-12-25T08:04:04.782Z,101122.13
2022-12-25T08:07:11.518Z,101127.38
2022-12-25T08:10:19.489Z,101135.84
2022-12-25T08:13:25.964Z,101143.19
2022-12-25T08:16:34.787Z,101136.66
2022-12-25T08:19:42.322Z,101136.31
2022-12-25T08:22:51.334Z,101128.87
2022-12-25T08:26:05.146Z,101141.59
2022-12-25T08:29:16.319Z,101136.84
2022-12-25T08:32:27.199Z,101143.22
2022-12-25T08:35:39.709Z,101139.53
2022-12-25T08:38:47.019Z,101138.75
2022-12-25T08:41:53.496Z,101152.69
2022-12-25T08:45:01.977Z,101155.28
2022-12-25T08:48:09.079Z,101164.06
2022-12-25T08:51:17.387Z,101149.97
2022-12-25T08:54:27.263Z,101155.03
2022-12-25T08:57:37.310Z,101160.47
2022-12-25T09:00:43.770Z,101152.59
2022-12-25T09:03:52.163Z,101161.94
2022-12-25T09:07:00.280Z,101155.63
2022-12-25T09:10:09.244Z,101164.41
2022-12-25T09:13:14.991Z,101151.44
2022-12-25T09:16:24.611Z,101153.44
2022-12-25T09:19:31.739Z,101159.44
2022-12-25T09:22:39.318Z,101150.28
2022-12-25T09:25:45.187Z,101158.84
2022-12-25T09:28:52.740Z,101155.50
2022-12-25T09:31:59.401Z,101156.38
2022-12-25T09:35:07.350Z,101158.22
2022-12-25T09:38:19.857Z,101162.56
2022-12-25T09:41:58.485Z,101157.91
2022-12-25T09:45:12.827Z,101168.53
2022-12-25T09:48:22.627Z,101167.38
2022-12-25T09:51:36.502Z,101168.25
2022-12-25T09:54:53.874Z,101156.50
2022-12-25T09:58:02.707Z,101158.38
2022-12-25T10:01:14.486Z,101150.78
2022-12-25T10:04:37.484Z,101157.94
2022-12-25T10:07:52.039Z,101156.53
2022-12-25T10:11:16.181Z,101155.72
2022-12-25T10:14:29.432Z,101158.53
2022-12-25T10:17:42.373Z,101156.06
2022-12-25T10:20:53.537Z,101155.78
2022-12-25T10:24:00.663Z,101151.87
2022-12-25T10:27:09.975Z,101147.97
2022-12-25T10:30:25.163Z,101152.59
2022-12-25T10:33:33.740Z,101143.38
2022-12-25T10:36:43.323Z,101142.25
2022-12-25T10:39:55.912Z,101141.59
2022-12-25T10:43:23.006Z,101138.66
2022-12-25T10:46:30.418Z,101138.53
2022-12-25T10:49:38.791Z,101133.06
2022-12-25T10:52:52.140Z,101142.44
2022-12-25T10:56:07.585Z,101139.63
2022-12-25T10:59:12.854Z,101129.63
2022-12-25T11:02:22.657Z,101133.50
2022-12-25T11:05:29.257Z,101135.59
2022-12-25T11:08:37.412Z,101117.47
2022-12-25T11:11:42.619Z,101124.87
2022-12-25T11:15:03.413Z,101118.00
2022-12-25T11:18:21.043Z,101109.66
2022-12-25T11:21:33.385Z,101108.50
2022-12-25T11:24:39.805Z,101122.28
2022-12-25T11:27:50.281Z,101117.12
2022-12-25T11:30:59.297Z,101099.94
2022-12-25T11:34:08.370Z,101095.59
2022-12-25T11:37:24.651Z,101098.19
2022-12-25T11:40:30.356Z,101099.00
2022-12-25T11:43:42.285Z,101092.94
2022-12-25T11:46:52.876Z,101097.38
2022-12-25T11:50:07.631Z,101095.38
2022-12-25T11:53:20.563Z,101091.16
2022-12-25T11:56:28.626Z,101097.66
2022-12-25T11:59:40.086Z,101093.59
2022-12-25T12:02:50.328Z,101092.47
2022-12-25T12:06:03.103Z,101087.69
2022-12-25T12:09:17.882Z,101088.37
2022-12-25T12:12:32.931Z,101094.31
2022-12-25T12:15:41.856Z,101077.16
2022-12-25T12:18:50.596Z,101084.47
2022-12-25T12:21:58.117Z,101087.41
2022-12-25T12:25:06.631Z,101089.12
2022-12-25T12:28:20.039Z,101090.38
2022-12-25T12:31:26.967Z,101091.41
2022-12-25T12:34:32.020Z,101092.84
2022-12-25T12:37:41.031Z,101093.53
2022-12-25T12:41:01.591Z,101092.91
2022-12-25T12:44:08.986Z,101084.94
2022-12-25T12:47:30.899Z,101091.75
2022-12-25T12:50:36.398Z,101090.34
2022-12-25T12:53:44.046Z,101098.59
2022-12-25T12:57:16.738Z,101098.59
2022-12-25T13:00:23.735Z,101103.03
2022-12-25T13:03:50.748Z,101106.84
2022-12-25T13:07:06.172Z,101106.19
2022-12-25T13:10:23.593Z,101109.84
2022-12-25T13:13:31.227Z,101117.78
2022-12-25T13:16:39.155Z,101114.44
2022-12-25T13:19:44.107Z,101109.03
2022-12-25T13:22:52.664Z,101102.91
2022-12-25T13:25:58.437Z,101100.25
2022-12-25T13:29:07.994Z,101092.69
2022-12-25T13:32:19.941Z,101095.06
2022-12-25T13:35:24.655Z,101102.69
2022-12-25T13:38:29.732Z,101117.41
2022-12-25T13:42:01.660Z,101102.63
2022-12-25T13:45:07.276Z,101109.31
2022-12-25T13:48:16.525Z,101110.97
2022-12-25T13:51:21.222Z,101102.63
2022-12-25T13:54:27.613Z,101107.44
2022-12-25T13:57:34.628Z,101117.97
2022-12-25T14:00:40.296Z,101119.03
2022-12-25T14:03:48.641Z,101114.16
2022-12-25T14:06:55.032Z,101122.25
2022-12-25T14:10:03.337Z,101116.91
2022-12-25T14:13:11.386Z,101104.22
2022-12-25T14:16:22.921Z,101102.94
2022-12-25T14:19:31.532Z,101113.03
2022-12-25T14:22:37.124Z,101117.75
2022-12-25T14:25:43.500Z,101112.81
2022-12-25T14:28:50.586Z,101124.00
2022-12-25T14:32:00.347Z,101122.03
2022-12-25T14:35:07.155Z,101121.13
2022-12-25T14:38:19.700Z,101128.56
2022-12-25T14:41:46.201Z,101124.69
2022-12-25T14:45:17.276Z,101125.69
2022-12-25T14:48:25.511Z,101136.59
2022-12-25T14:51:34.432Z,101126.56
2022-12-25T14:54:46.379Z,101131.06
2022-12-25T14:57:54.791Z,101132.31
2022-12-25T15:01:05.977Z,101132.63
2022-12-25T15:04:11.849Z,101138.22
2022-12-25T15:07:26.383Z,101136.28
2022-12-25T15:14:00.253Z,101135.03
2022-12-25T15:17:05.402Z,101136.28
2022-12-25T15:20:13.270Z,101137.91
2022-12-25T15:23:19.735Z,101136.13
2022-12-25T15:26:25.975Z,101134.47
2022-12-25T15:30:07.709Z,101137.38
2022-12-25T15:32:54.064Z,101132.81
2022-12-25T15:36:00.574Z,101133.06
2022-12-25T15:39:06.751Z,101135.72
2022-12-25T15:42:19.671Z,101132.81
2022-12-25T15:45:29.399Z,101132.81
2022-12-25T15:48:37.068Z,101152.59
2022-12-25T15:51:43.528Z,101147.97
2022-12-25T15:54:53.796Z,101138.63
2022-12-25T15:58:00.802Z,101134.47
2022-12-25T16:01:07.018Z,101133.62
2022-12-25T16:04:13.049Z,101138.91
2022-12-25T16:07:21.253Z,101138.31
2022-12-25T16:10:30.976Z,101141.78
2022-12-25T16:13:39.632Z,101145.59
2022-12-25T16:16:45.893Z,101134.03
2022-12-25T16:19:53.143Z,101137.53
2022-12-25T16:23:01.296Z,101135.56
2022-12-25T16:26:08.769Z,101141.56
2022-12-25T16:29:17.006Z,101134.31
2022-12-25T16:32:24.295Z,101129.84
2022-12-25T16:35:31.700Z,101129.72
2022-12-25T16:38:38.830Z,101122.75
2022-12-25T16:41:47.711Z,101123.59
2022-12-25T16:44:53.200Z,101115.94
2022-12-25T16:48:01.765Z,101119.56
2022-12-25T16:51:11.383Z,101112.31
2022-12-25T16:54:18.475Z,101120.09
2022-12-25T16:57:27.483Z,101114.50
2022-12-25T17:00:37.093Z,101112.69
2022-12-25T17:03:45.428Z,101106.44
2022-12-25T17:06:52.745Z,101109.47
2022-12-25T17:09:59.786Z,101106.12
2022-12-25T17:13:06.828Z,101108.78
2022-12-25T17:16:18.275Z,101118.66
2022-12-25T17:19:23.838Z,101111.69
2022-12-25T17:22:31.456Z,101110.59
2022-12-25T17:25:39.304Z,101119.50
2022-12-25T17:28:51.035Z,101115.91
2022-12-25T17:31:55.297Z,101108.41
2022-12-25T17:35:01.500Z,101104.47
2022-12-25T17:38:07.043Z,101104.59
2022-12-25T17:41:12.301Z,101088.34
2022-12-25T17:44:17.400Z,101088.47
2022-12-25T17:47:20.802Z,101075.66
2022-12-25T17:50:27.594Z,101076.50
2022-12-25T17:53:37.164Z,101083.75
2022-12-25T17:56:43.564Z,101083.12
2022-12-25T17:59:47.249Z,101093.69
2022-12-25T18:02:51.505Z,101089.22
2022-12-25T18:06:00.338Z,101091.31
2022-12-25T18:09:07.915Z,101089.59
2022-12-25T18:12:14.908Z,101104.47
2022-12-25T18:15:19.874Z,101091.91
2022-12-25T18:18:24.833Z,101095.34
2022-12-25T18:21:29.826Z,101097.94
2022-12-25T18:24:33.094Z,101092.94
2022-12-25T18:27:39.705Z,101093.78
2022-12-25T18:30:46.589Z,101088.88
2022-12-25T18:33:52.047Z,101069.25
2022-12-25T18:37:04.537Z,101078.44
2022-12-25T18:40:10.543Z,101085.41
2022-12-25T18:43:14.813Z,101076.38
2022-12-25T18:46:21.885Z,101076.69
2022-12-25T18:49:27.918Z,101074.75
2022-12-25T18:52:47.756Z,101078.81
2022-12-25T18:55:59.127Z,101080.44
2022-12-25T18:59:05.914Z,101074.03
2022-12-25T19:02:16.759Z,101065.03
2022-12-25T19:05:24.072Z,101069.91
2022-12-25T19:08:32.117Z,101072.00
2022-12-25T19:11:45.661Z,101062.59
2022-12-25T19:14:54.090Z,101060.37
2022-12-25T19:18:00.206Z,101051.22
2022-12-25T19:21:10.641Z,101045.12
2022-12-25T19:24:17.575Z,101056.81
2022-12-25T19:27:26.034Z,101060.28
2022-12-25T19:30:32.179Z,101063.63
2022-12-25T19:33:42.538Z,101054.63
2022-12-25T19:36:52.204Z,101063.09
2022-12-25T19:40:00.307Z,101055.41
2022-12-25T19:43:08.154Z,101062.53
2022-12-25T19:46:34.152Z,101074.50
2022-12-25T19:49:40.779Z,101068.38
2022-12-25T19:52:48.845Z,101057.44
2022-12-25T19:55:54.657Z,101048.69
2022-12-25T19:59:04.050Z,101056.59
2022-12-25T20:02:13.586Z,101043.37
2022-12-25T20:05:20.038Z,101037.81
2022-12-25T20:08:26.099Z,101017.06
2022-12-25T20:11:35.101Z,101004.41
2022-12-25T20:14:42.879Z,101011.09
2022-12-25T20:17:49.124Z,100992.44
2022-12-25T20:21:02.886Z,101011.78
2022-12-25T20:24:11.484Z,101024.03
2022-12-25T20:27:19.685Z,101020.56
2022-12-25T20:30:28.555Z,101030.47
2022-12-25T20:33:36.581Z,101022.94
2022-12-25T20:36:43.598Z,101016.66
2022-12-25T20:39:50.226Z,101010.28
2022-12-25T20:42:58.055Z,101012.63
2022-12-25T20:46:04.839Z,101010.28
2022-12-25T20:49:12.236Z,101016.94
2022-12-25T20:52:20.265Z,101028.06
2022-12-25T20:55:24.024Z,101021.16
2022-12-25T20:58:29.584Z,101007.22
2022-12-25T21:01:35.859Z,101010.69
2022-12-25T21:04:42.767Z,101011.13
2022-12-25T21:07:52.385Z,101018.22
2022-12-25T21:11:01.200Z,101021.94
2022-12-25T21:14:08.369Z,101013.34
2022-12-25T21:17:12.988Z,101009.56
2022-12-25T21:20:19.118Z,101000.97
2022-12-25T21:23:25.893Z,101000.78
2022-12-25T21:26:31.730Z,101005.00
2022-12-25T21:29:35.692Z,101015.69
2022-12-25T21:33:10.701Z,101014.03
2022-12-25T21:36:17.083Z,101005.66
2022-12-25T21:39:23.997Z,100983.41
2022-12-25T21:42:30.258Z,101001.38
2022-12-25T21:45:36.357Z,100997.91
2022-12-25T21:48:47.119Z,100997.34
2022-12-25T21:52:10.941Z,100985.94
2022-12-25T21:55:14.297Z,100994.69
2022-12-25T21:58:19.982Z,100998.88
2022-12-25T22:01:26.377Z,101009.56
2022-12-25T22:04:36.949Z,101008.59
2022-12-25T22:07:43.647Z,101023.91
2022-12-25T22:10:52.139Z,101019.47
2022-12-25T22:14:14.635Z,101019.87
2022-12-25T22:17:42.225Z,101021.81
2022-12-25T22:20:45.842Z,101017.50
2022-12-25T22:23:52.415Z,101008.47
2022-12-25T22:27:01.788Z,101016.25
2022-12-25T22:30:17.012Z,101013.88
2022-12-25T22:33:23.316Z,100995.66
2022-12-25T22:36:29.859Z,100992.72
2022-12-25T22:39:38.576Z,101000.25
2022-12-25T22:42:44.578Z,101009.16
2022-12-25T22:45:53.179Z,101006.78
2022-12-25T22:49:01.842Z,101008.59
2022-12-25T22:52:09.040Z,101017.06
2022-12-25T22:55:16.481Z,101007.63
2022-12-25T22:58:23.461Z,101013.06
2022-12-25T23:01:33.373Z,100999.28
2022-12-25T23:04:41.713Z,100995.09
2022-12-25T23:07:49.077Z,101001.09
2022-12-25T23:10:55.163Z,100987.41
2022-12-25T23:14:18.999Z,100989.41
2022-12-25T23:17:42.187Z,100999.69
2022-12-25T23:21:07.408Z,100993.88
2022-12-25T23:24:32.892Z,100990.47
2022-12-25T23:27:40.539Z,100984.75
2022-12-25T23:30:47.148Z,100989.22
2022-12-25T23:33:53.681Z,101000.06
2022-12-25T23:36:59.688Z,100990.59
2022-12-25T23:40:04.467Z,100980.19
2022-12-25T23:43:07.939Z,100965.53
2022-12-25T23:46:13.175Z,100972.37
2022-12-25T23:49:20.062Z,100977.22
2022-12-25T23:52:25.475Z,100976.69
2022-12-25T23:55:32.518Z,100966.09
2022-12-25T23:58:41.680Z,100965.13
